Time;durP1;ratioP1;P1;durP2;ratioP2;P2;SDS_P1;SDS_P2;PMS_P1;PMS_P2;Temp;Humidity;BMP_temperature;BMP_pressure;BME280_temperature;BME280_humidity;BME280_pressure;Samples;Min_cycle;Max_cycle;Signal;HPM_P1;HPM_P2
2022/01/24 13:32:57;;;;;;;;;;;26.80;54.00;;;;;;3876310;22;20007;-90
2022/01/24 13:34:29;;;;;;;;;;;26.80;54.30;;;;;;3875707;23;19920;-90
2022/01/24 13:36:01;;;;;;;;;;;26.80;54.20;;;;;;3875630;23;19919;-90
2022/01/24 13:37:34;;;;;;;;;;;26.80;54.20;;;;;;3880555;22;20330;-90
2022/01/24 13:39:06;;;;;;;;;;;26.80;54.30;;;;;;3893921;22;19919;-91
2022/01/24 13:40:41;;;;;;;;;;;26.90;54.20;;;;;;3895433;22;20360;-91
2022/01/24 13:42:18;;;;;;;;;;;26.90;54.20;;;;;;3894959;22;19923;-91
2022/01/24 13:43:51;;;;;;;;;;;26.90;54.50;;;;;;3874350;23;19969;-92
2022/01/24 13:45:23;;;;;;;;;;;26.90;53.60;;;;;;3878257;22;19919;-86
2022/01/24 13:46:55;;;;;;;;;;;26.80;48.40;;;;;;3893493;22;19989;-88
2022/01/24 13:48:28;;;;;;;;;;;26.70;40.70;;;;;;3894793;22;19923;-89
2022/01/24 13:50:00;;;;;;;;;;;26.60;39.10;;;;;;3894410;22;19950;-90
2022/01/24 13:51:34;;;;;;;;;;;26.50;40.10;;;;;;3893935;22;19919;-88
2022/01/24 13:53:06;;;;;;;;;;;26.40;41.10;;;;;;3893710;22;19969;-87
2022/01/24 13:54:40;;;;;;;;;;;26.30;41.00;;;;;;3894432;22;19972;-87
2022/01/24 13:56:22;;;;;;;;;;;26.30;41.30;;;;;;3895552;22;19919;-88
2022/01/24 13:57:54;;;;;;;;;;;26.30;41.20;;;;;;3894952;22;20268;-90
2022/01/24 13:59:28;;;;;;;;;;;26.20;41.20;;;;;;3894885;22;19969;-89
2022/01/24 14:01:00;;;;;;;;;;;26.10;41.20;;;;;;3893349;22;19923;-88
2022/01/24 14:02:33;;;;;;;;;;;26.10;40.30;;;;;;3890923;22;19919;-88
2022/01/24 14:04:07;;;;;;;;;;;26.00;40.60;;;;;;3895409;22;20357;-91
2022/01/24 14:05:39;;;;;;;;;;;26.00;40.80;;;;;;3895054;22;19945;-90
2022/01/24 14:07:11;;;;;;;;;;;26.00;41.00;;;;;;3894365;22;20318;-89
2022/01/24 14:08:45;;;;;;;;;;;26.00;40.90;;;;;;3894520;22;19919;-89
2022/01/24 14:10:17;;;;;;;;;;;26.00;41.10;;;;;;3894412;22;19923;-89
2022/01/24 14:11:49;;;;;;;;;;;25.90;40.50;;;;;;3894626;22;19924;-87
2022/01/24 14:13:24;;;;;;;;;;;25.90;40.40;;;;;;3893278;22;20129;-88
2022/01/24 14:15:00;;;;;;;;;;;25.80;41.00;;;;;;3892506;22;19923;-88
2022/01/24 14:16:45;;;;;;;;;;;25.70;41.50;;;;;;3893222;22;19961;-87
2022/01/24 14:18:28;;;;;;;;;;;25.70;41.10;;;;;;3893498;22;20498;-87
2022/01/24 14:20:03;;;;;;;;;;;25.70;41.10;;;;;;3893192;22;19926;-87
2022/01/24 14:21:34;;;;;;;;;;;25.60;41.40;;;;;;3894020;22;19923;-88
2022/01/24 14:23:15;;;;;;;;;;;25.60;41.40;;;;;;3892225;22;19995;-88
2022/01/24 14:24:48;;;;;;;;;;;25.50;41.40;;;;;;3894768;22;19919;-89
2022/01/24 14:26:20;;;;;;;;;;;25.50;40.70;;;;;;3894143;22;19965;-88
2022/01/24 14:27:52;;;;;;;;;;;25.50;40.40;;;;;;3892734;22;20199;-86
2022/01/24 14:29:33;;;;;;;;;;;25.40;40.50;;;;;;3893692;22;19919;-87
2022/01/24 14:31:10;;;;;;;;;;;25.40;41.20;;;;;;3891449;22;19945;-87
2022/01/24 14:32:48;;;;;;;;;;;25.40;41.70;;;;;;3892274;22;20301;-87
2022/01/24 14:34:20;;;;;;;;;;;25.40;41.60;;;;;;3893404;22;20004;-88
2022/01/24 14:35:54;;;;;;;;;;;25.40;42.60;;;;;;3893446;22;19919;-87
2022/01/24 14:37:35;;;;;;;;;;;25.40;42.80;;;;;;3893220;22;19919;-87
2022/01/24 14:39:09;;;;;;;;;;;25.30;42.60;;;;;;3893658;22;20321;-87
2022/01/24 14:40:52;;;;;;;;;;;25.30;43.30;;;;;;3893499;22;20289;-87
2022/01/24 14:42:43;;;;;;;;;;;25.30;42.70;;;;;;3893308;22;20278;-89
2022/01/24 14:46:06;;;;;;;;;;;25.30;43.30;;;;;;3891971;22;19916;-88
2022/01/24 14:47:38;;;;;;;;;;;25.20;43.10;;;;;;3893989;22;19937;-88
2022/01/24 14:49:10;;;;;;;;;;;25.20;43.10;;;;;;3893016;22;20346;-88
2022/01/24 14:50:42;;;;;;;;;;;25.20;43.10;;;;;;3893728;22;20010;-88
2022/01/24 14:52:18;;;;;;;;;;;25.10;43.10;;;;;;3893921;22;19919;-88
2022/01/24 14:53:50;;;;;;;;;;;25.20;43.20;;;;;;3877700;23;19920;-88
2022/01/24 14:55:22;;;;;;;;;;;25.10;43.10;;;;;;3874960;23;19980;-88
2022/01/24 14:56:54;;;;;;;;;;;25.10;43.20;;;;;;3875250;23;19965;-89
2022/01/24 14:58:26;;;;;;;;;;;25.10;43.30;;;;;;3889022;22;20306;-88
2022/01/24 14:59:57;;;;;;;;;;;25.10;43.30;;;;;;3893646;22;20334;-89
2022/01/24 15:01:29;;;;;;;;;;;25.10;43.40;;;;;;3874079;22;19919;-88
2022/01/24 15:03:01;;;;;;;;;;;25.10;43.40;;;;;;3874036;22;19958;-89
2022/01/24 15:04:32;;;;;;;;;;;25.00;43.50;;;;;;3874664;23;19923;-88
2022/01/24 15:06:04;;;;;;;;;;;25.00;43.50;;;;;;3874710;23;19985;-89
2022/01/24 15:07:37;;;;;;;;;;;25.00;43.50;;;;;;3874858;22;19950;-89
2022/01/24 15:09:09;;;;;;;;;;;25.00;43.70;;;;;;3873995;23;19951;-89
2022/01/24 15:10:41;;;;;;;;;;;25.00;43.70;;;;;;3875288;23;20246;-89
2022/01/24 15:12:13;;;;;;;;;;;25.00;43.70;;;;;;3874670;23;20358;-89
2022/01/24 15:13:48;;;;;;;;;;;24.90;43.70;;;;;;3873920;22;19930;-87
2022/01/24 15:15:22;;;;;;;;;;;24.90;43.80;;;;;;3874277;22;19920;-88
2022/01/24 15:17:01;;;;;;;;;;;24.90;43.90;;;;;;3873733;23;19923;-88
2022/01/24 15:24:26;;;;;;;;;;;24.90;44.00;;;;;;3875316;23;19915;-89
2022/01/24 15:25:57;;;;;;;;;;;24.90;45.20;;;;;;3874480;23;20402;-90
2022/01/24 15:27:29;;;;;;;;;;;25.00;45.70;;;;;;3873457;22;19976;-92
2022/01/24 15:30:52;;;;;;;;;;;25.00;44.00;;;;;;3855220;22;19960;-91
2022/01/24 15:32:24;;;;;;;;;;;25.00;44.10;;;;;;3874010;23;20380;-90
2022/01/24 15:33:56;;;;;;;;;;;25.10;44.10;;;;;;3875235;23;19924;-91
2022/01/24 15:35:27;;;;;;;;;;;25.00;43.90;;;;;;3873963;23;19919;-90
2022/01/24 15:36:59;;;;;;;;;;;25.00;44.00;;;;;;3874874;23;19923;-86
2022/01/24 15:38:33;;;;;;;;;;;25.00;44.20;;;;;;3875201;22;19920;-88
2022/01/24 15:40:07;;;;;;;;;;;25.00;44.20;;;;;;3874437;23;20238;-90
2022/01/24 15:41:49;;;;;;;;;;;24.90;44.60;;;;;;3876437;23;19989;-91
2022/01/24 15:43:41;;;;;;;;;;;24.90;44.30;;;;;;3876645;22;19924;-91
2022/01/24 15:45:28;;;;;;;;;;;24.90;44.60;;;;;;3877220;22;19939;-91
2022/01/24 15:47:03;;;;;;;;;;;25.00;44.30;;;;;;3877135;23;20350;-92
2022/01/24 15:48:35;;;;;;;;;;;24.90;44.30;;;;;;3876256;22;19920;-88
2022/01/24 15:50:08;;;;;;;;;;;24.90;44.40;;;;;;3876505;23;19920;-89
2022/01/24 15:51:39;;;;;;;;;;;24.90;44.50;;;;;;3876265;22;19923;-89
2022/01/24 15:53:11;;;;;;;;;;;24.90;44.50;;;;;;3874850;22;19933;-89
2022/01/24 15:54:46;;;;;;;;;;;24.90;44.70;;;;;;3876706;23;19923;-89
2022/01/24 15:58:06;;;;;;;;;;;24.90;44.60;;;;;;3872690;22;19932;-88
2022/01/24 15:59:38;;;;;;;;;;;24.90;44.50;;;;;;3876135;23;19919;-88
2022/01/24 16:01:09;;;;;;;;;;;24.90;45.00;;;;;;3874296;22;19927;-87
2022/01/24 16:02:42;;;;;;;;;;;25.00;45.10;;;;;;3873914;22;20309;-90
2022/01/24 16:04:13;;;;;;;;;;;24.90;44.80;;;;;;3875917;23;19919;-89
2022/01/24 16:05:45;;;;;;;;;;;24.90;44.60;;;;;;3875275;23;19939;-88
2022/01/24 16:07:17;;;;;;;;;;;24.90;44.80;;;;;;3874934;22;19935;-88
2022/01/24 16:08:49;;;;;;;;;;;24.80;44.70;;;;;;3874694;23;19943;-88
2022/01/24 16:10:21;;;;;;;;;;;24.80;44.80;;;;;;3874843;23;19930;-89
2022/01/24 16:11:53;;;;;;;;;;;24.80;44.80;;;;;;3876055;23;19920;-89
2022/01/24 16:13:26;;;;;;;;;;;24.80;44.90;;;;;;3873676;22;19907;-89
2022/01/24 16:14:57;;;;;;;;;;;24.80;44.90;;;;;;3875565;23;20326;-88
2022/01/24 16:16:29;;;;;;;;;;;24.70;44.90;;;;;;3875106;22;19924;-88
2022/01/24 16:18:01;;;;;;;;;;;24.70;45.10;;;;;;3875820;22;19927;-88
2022/01/24 16:19:36;;;;;;;;;;;24.70;45.10;;;;;;3876781;23;19931;-88
2022/01/24 16:21:26;;;;;;;;;;;24.70;45.10;;;;;;3875510;23;20320;-89
2022/01/24 16:23:05;;;;;;;;;;;24.70;45.20;;;;;;3874676;22;20374;-88
2022/01/24 16:26:26;;;;;;;;;;;24.70;45.30;;;;;;3876039;23;20271;-88
2022/01/24 16:27:59;;;;;;;;;;;24.70;45.40;;;;;;3874876;22;19919;-88
2022/01/24 16:29:31;;;;;;;;;;;24.70;45.40;;;;;;3875907;23;19998;-89
2022/01/24 16:31:04;;;;;;;;;;;24.70;45.40;;;;;;3874358;22;19926;-89
2022/01/24 16:32:37;;;;;;;;;;;24.70;45.50;;;;;;3876392;22;20007;-92
2022/01/24 16:34:09;;;;;;;;;;;24.70;45.50;;;;;;3875557;23;19942;-90
2022/01/24 16:35:43;;;;;;;;;;;24.70;45.50;;;;;;3875287;23;19923;-90
2022/01/24 16:37:17;;;;;;;;;;;24.60;45.50;;;;;;3876222;22;19926;-89
2022/01/24 16:38:50;;;;;;;;;;;24.70;46.10;;;;;;3876135;23;20596;-91
2022/01/24 16:40:27;;;;;;;;;;;24.70;46.00;;;;;;3875184;23;20346;-88
2022/01/24 16:42:03;;;;;;;;;;;24.80;46.00;;;;;;3874361;23;19939;-88
2022/01/24 16:47:23;;;;;;;;;;;24.90;45.70;;;;;;3875880;22;20534;-90
2022/01/24 16:48:55;;;;;;;;;;;24.80;45.50;;;;;;3875108;23;19965;-89
2022/01/24 16:50:27;;;;;;;;;;;24.80;45.50;;;;;;3876855;23;19951;-88
2022/01/24 16:51:59;;;;;;;;;;;24.80;45.90;;;;;;3875042;23;20258;-88
2022/01/24 16:53:31;;;;;;;;;;;24.80;45.60;;;;;;3875859;22;19919;-87
2022/01/24 16:55:03;;;;;;;;;;;24.70;45.60;;;;;;3875336;23;19943;-91
2022/01/24 16:56:47;;;;;;;;;;;24.80;46.50;;;;;;3877066;23;20313;-92
2022/01/24 16:58:20;;;;;;;;;;;24.70;46.10;;;;;;3876361;22;19946;-89
2022/01/24 16:59:53;;;;;;;;;;;24.80;46.10;;;;;;3876032;23;19966;-89
2022/01/24 17:01:25;;;;;;;;;;;24.80;45.90;;;;;;3875688;22;20061;-88
2022/01/24 17:02:56;;;;;;;;;;;24.80;46.00;;;;;;3873967;22;19926;-89
2022/01/24 17:04:28;;;;;;;;;;;24.70;45.80;;;;;;3874833;23;19973;-88
2022/01/24 17:05:59;;;;;;;;;;;24.70;45.90;;;;;;3876334;23;19920;-90
